sensor_id;sensor_type;location;lat;lon;timestamp;noise_LAeq;noise_LA_min;noise_LA_max;noise_LA01;noise_LA95
69616;Laerm;56822;52.516;4.708;2024-01-30T00:00:09;46.51;43.15;50.35;;
69616;Laerm;56822;52.516;4.708;2024-01-30T00:00:19;46.24;42.79;50.53;;
69616;Laerm;56822;52.516;4.708;2024-01-30T00:00:29;45.91;43.00;49.43;;
69616;Laerm;56822;52.516;4.708;2024-01-30T00:00:40;46.58;43.81;49.96;;
69616;Laerm;56822;52.516;4.708;2024-01-30T00:00:50;46.41;43.47;49.99;;
69616;Laerm;56822;52.516;4.708;2024-01-30T00:01:00;46.47;43.02;49.97;;
69616;Laerm;56822;52.516;4.708;2024-01-30T00:01:11;46.32;43.19;50.61;;
69616;Laerm;56822;52.516;4.708;2024-01-30T00:01:21;46.89;43.81;50.51;;
69616;Laerm;56822;52.516;4.708;2024-01-30T00:01:32;46.74;43.44;50.39;;
69616;Laerm;56822;52.516;4.708;2024-01-30T00:01:42;46.83;43.78;50.12;;
69616;Laerm;56822;52.516;4.708;2024-01-30T00:01:52;46.77;43.45;50.12;;
69616;Laerm;56822;52.516;4.708;2024-01-30T00:02:02;46.66;43.73;50.59;;
69616;Laerm;56822;52.516;4.708;2024-01-30T00:02:13;46.47;42.80;50.32;;
69616;Laerm;56822;52.516;4.708;2024-01-30T00:02:23;46.92;43.40;50.48;;
69616;Laerm;56822;52.516;4.708;2024-01-30T00:02:33;46.68;43.41;50.39;;
69616;Laerm;56822;52.516;4.708;2024-01-30T00:02:44;46.48;43.71;50.33;;
69616;Laerm;56822;52.516;4.708;2024-01-30T00:02:55;46.51;43.64;50.86;;
69616;Laerm;56822;52.516;4.708;2024-01-30T00:03:06;46.37;42.73;49.34;;
69616;Laerm;56822;52.516;4.708;2024-01-30T00:03:16;46.39;42.51;49.88;;
69616;Laerm;56822;52.516;4.708;2024-01-30T00:03:26;46.32;43.89;49.64;;
69616;Laerm;56822;52.516;4.708;2024-01-30T00:03:37;46.83;43.62;51.01;;
69616;Laerm;56822;52.516;4.708;2024-01-30T00:03:47;47.22;44.82;51.97;;
69616;Laerm;56822;52.516;4.708;2024-01-30T00:03:57;46.96;44.18;50.42;;
69616;Laerm;56822;52.516;4.708;2024-01-30T00:04:07;46.91;43.50;53.30;;
69616;Laerm;56822;52.516;4.708;2024-01-30T00:04:18;46.63;43.54;50.08;;
69616;Laerm;56822;52.516;4.708;2024-01-30T00:04:28;46.80;43.77;49.96;;
69616;Laerm;56822;52.516;4.708;2024-01-30T00:04:38;46.29;43.08;49.31;;
69616;Laerm;56822;52.516;4.708;2024-01-30T00:04:48;46.70;43.19;51.20;;
69616;Laerm;56822;52.516;4.708;2024-01-30T00:04:59;46.20;42.99;50.03;;
69616;Laerm;56822;52.516;4.708;2024-01-30T00:05:09;46.16;42.95;50.21;;
69616;Laerm;56822;52.516;4.708;2024-01-30T00:05:20;46.19;42.47;49.38;;
69616;Laerm;56822;52.516;4.708;2024-01-30T00:05:30;45.98;42.00;49.01;;
69616;Laerm;56822;52.516;4.708;2024-01-30T00:05:40;46.38;42.79;50.18;;
69616;Laerm;56822;52.516;4.708;2024-01-30T00:05:50;46.40;42.40;51.55;;
69616;Laerm;56822;52.516;4.708;2024-01-30T00:06:02;46.62;43.15;50.35;;
69616;Laerm;56822;52.516;4.708;2024-01-30T00:06:13;46.87;43.78;51.51;;
69616;Laerm;56822;52.516;4.708;2024-01-30T00:06:23;46.60;43.61;50.09;;
69616;Laerm;56822;52.516;4.708;2024-01-30T00:06:33;46.51;43.95;50.17;;
69616;Laerm;56822;52.516;4.708;2024-01-30T00:06:44;46.59;43.78;50.39;;
69616;Laerm;56822;52.516;4.708;2024-01-30T00:06:54;46.45;42.70;50.81;;
69616;Laerm;56822;52.516;4.708;2024-01-30T00:07:05;46.24;43.43;49.79;;
69616;Laerm;56822;52.516;4.708;2024-01-30T00:07:15;45.68;42.61;48.64;;
69616;Laerm;56822;52.516;4.708;2024-01-30T00:07:25;46.54;43.55;50.17;;
69616;Laerm;56822;52.516;4.708;2024-01-30T00:07:36;46.51;42.87;50.29;;
69616;Laerm;56822;52.516;4.708;2024-01-30T00:07:46;46.51;43.57;51.02;;
69616;Laerm;56822;52.516;4.708;2024-01-30T00:07:56;46.26;42.59;49.34;;
69616;Laerm;56822;52.516;4.708;2024-01-30T00:08:06;45.96;42.93;49.96;;
69616;Laerm;56822;52.516;4.708;2024-01-30T00:08:17;46.21;41.90;49.34;;
69616;Laerm;56822;52.516;4.708;2024-01-30T00:08:27;46.67;43.13;50.64;;
69616;Laerm;56822;52.516;4.708;2024-01-30T00:08:38;46.67;43.55;50.18;;
69616;Laerm;56822;52.516;4.708;2024-01-30T00:08:48;46.51;42.60;50.29;;
69616;Laerm;56822;52.516;4.708;2024-01-30T00:08:59;46.66;43.00;50.89;;
69616;Laerm;56822;52.516;4.708;2024-01-30T00:09:09;46.43;42.61;49.53;;
69616;Laerm;56822;52.516;4.708;2024-01-30T00:09:20;46.39;42.30;49.89;;
69616;Laerm;56822;52.516;4.708;2024-01-30T00:09:30;45.91;42.72;48.58;;
69616;Laerm;56822;52.516;4.708;2024-01-30T00:09:41;45.42;42.50;48.86;;
69616;Laerm;56822;52.516;4.708;2024-01-30T00:09:51;45.41;42.51;48.89;;
69616;Laerm;56822;52.516;4.708;2024-01-30T00:10:01;45.37;41.65;48.90;;
69616;Laerm;56822;52.516;4.708;2024-01-30T00:10:12;45.31;41.97;48.53;;
69616;Laerm;56822;52.516;4.708;2024-01-30T00:10:22;45.61;42.74;49.35;;
69616;Laerm;56822;52.516;4.708;2024-01-30T00:10:32;45.56;42.57;49.01;;
69616;Laerm;56822;52.516;4.708;2024-01-30T00:10:42;45.68;42.48;48.20;;
69616;Laerm;56822;52.516;4.708;2024-01-30T00:10:53;45.08;42.73;48.33;;
69616;Laerm;56822;52.516;4.708;2024-01-30T00:11:03;45.10;42.74;48.72;;
69616;Laerm;56822;52.516;4.708;2024-01-30T00:11:14;44.72;42.29;47.44;;
69616;Laerm;56822;52.516;4.708;2024-01-30T00:11:24;45.07;42.41;47.91;;
69616;Laerm;56822;52.516;4.708;2024-01-30T00:11:35;44.90;42.14;47.25;;
69616;Laerm;56822;52.516;4.708;2024-01-30T00:11:46;45.38;42.83;48.13;;
69616;Laerm;56822;52.516;4.708;2024-01-30T00:11:56;45.50;42.92;49.06;;
69616;Laerm;56822;52.516;4.708;2024-01-30T00:12:07;45.88;42.77;49.42;;
69616;Laerm;56822;52.516;4.708;2024-01-30T00:12:17;46.10;42.49;49.52;;
69616;Laerm;56822;52.516;4.708;2024-01-30T00:12:27;46.01;43.07;50.04;;
69616;Laerm;56822;52.516;4.708;2024-01-30T00:12:37;45.98;42.93;49.40;;
69616;Laerm;56822;52.516;4.708;2024-01-30T00:12:48;45.61;42.61;49.52;;
69616;Laerm;56822;52.516;4.708;2024-01-30T00:12:58;45.88;42.43;49.20;;
69616;Laerm;56822;52.516;4.708;2024-01-30T00:13:08;45.60;41.86;49.45;;
69616;Laerm;56822;52.516;4.708;2024-01-30T00:13:19;45.74;42.59;50.01;;
69616;Laerm;56822;52.516;4.708;2024-01-30T00:13:29;45.68;42.69;49.34;;
69616;Laerm;56822;52.516;4.708;2024-01-30T00:13:40;45.03;41.97;47.86;;
69616;Laerm;56822;52.516;4.708;2024-01-30T00:13:50;45.13;42.78;47.77;;
69616;Laerm;56822;52.516;4.708;2024-01-30T00:14:00;45.31;42.71;48.36;;
69616;Laerm;56822;52.516;4.708;2024-01-30T00:14:10;46.17;43.21;49.13;;
69616;Laerm;56822;52.516;4.708;2024-01-30T00:14:21;45.91;43.22;49.46;;
69616;Laerm;56822;52.516;4.708;2024-01-30T00:14:31;45.64;42.41;49.73;;
69616;Laerm;56822;52.516;4.708;2024-01-30T00:14:42;45.16;42.27;48.43;;
69616;Laerm;56822;52.516;4.708;2024-01-30T00:14:53;44.84;42.06;47.38;;
69616;Laerm;56822;52.516;4.708;2024-01-30T00:15:04;44.63;42.20;47.57;;
69616;Laerm;56822;52.516;4.708;2024-01-30T00:15:15;44.80;42.50;48.23;;
69616;Laerm;56822;52.516;4.708;2024-01-30T00:15:25;44.42;41.77;47.00;;
69616;Laerm;56822;52.516;4.708;2024-01-30T00:15:35;44.46;41.98;46.83;;
69616;Laerm;56822;52.516;4.708;2024-01-30T00:15:46;44.11;41.90;46.71;;
69616;Laerm;56822;52.516;4.708;2024-01-30T00:15:56;44.37;41.96;47.49;;
69616;Laerm;56822;52.516;4.708;2024-01-30T00:16:06;44.53;41.75;47.37;;
69616;Laerm;56822;52.516;4.708;2024-01-30T00:16:20;44.46;41.28;46.86;;
69616;Laerm;56822;52.516;4.708;2024-01-30T00:16:31;44.56;41.83;48.36;;
69616;Laerm;56822;52.516;4.708;2024-01-30T00:16:41;45.97;42.36;56.88;;
69616;Laerm;56822;52.516;4.708;2024-01-30T00:16:51;45.38;42.78;52.44;;
69616;Laerm;56822;52.516;4.708;2024-01-30T00:17:02;45.03;42.14;48.24;;
69616;Laerm;56822;52.516;4.708;2024-01-30T00:17:12;44.97;42.06;47.48;;
69616;Laerm;56822;52.516;4.708;2024-01-30T00:17:22;45.01;41.31;49.14;;
69616;Laerm;56822;52.516;4.708;2024-01-30T00:17:37;45.27;42.21;48.56;;
69616;Laerm;56822;52.516;4.708;2024-01-30T00:17:48;45.31;42.50;49.53;;
69616;Laerm;56822;52.516;4.708;2024-01-30T00:17:59;45.60;42.07;50.21;;
69616;Laerm;56822;52.516;4.708;2024-01-30T00:18:09;46.23;42.07;50.06;;
69616;Laerm;56822;52.516;4.708;2024-01-30T00:18:19;45.69;43.09;49.97;;
69616;Laerm;56822;52.516;4.708;2024-01-30T00:18:29;45.68;42.56;48.56;;
69616;Laerm;56822;52.516;4.708;2024-01-30T00:18:40;46.15;42.45;49.89;;
69616;Laerm;56822;52.516;4.708;2024-01-30T00:18:50;46.24;43.25;49.09;;
69616;Laerm;56822;52.516;4.708;2024-01-30T00:19:01;46.39;43.64;49.38;;
69616;Laerm;56822;52.516;4.708;2024-01-30T00:19:12;46.10;43.08;49.17;;
69616;Laerm;56822;52.516;4.708;2024-01-30T00:19:22;45.72;42.83;48.75;;
69616;Laerm;56822;52.516;4.708;2024-01-30T00:19:32;45.73;42.38;49.16;;
69616;Laerm;56822;52.516;4.708;2024-01-30T00:19:43;45.90;43.10;49.42;;
69616;Laerm;56822;52.516;4.708;2024-01-30T00:19:53;46.32;43.09;50.16;;
69616;Laerm;56822;52.516;4.708;2024-01-30T00:20:03;45.86;43.14;49.53;;
69616;Laerm;56822;52.516;4.708;2024-01-30T00:20:15;45.94;43.22;48.65;;
69616;Laerm;56822;52.516;4.708;2024-01-30T00:20:25;46.09;43.70;49.12;;
69616;Laerm;56822;52.516;4.708;2024-01-30T00:20:36;45.16;42.44;47.23;;
69616;Laerm;56822;52.516;4.708;2024-01-30T00:20:46;45.30;42.07;49.20;;
69616;Laerm;56822;52.516;4.708;2024-01-30T00:20:56;45.64;42.60;48.42;;
69616;Laerm;56822;52.516;4.708;2024-01-30T00:21:06;45.49;42.41;49.06;;
69616;Laerm;56822;52.516;4.708;2024-01-30T00:21:17;45.93;42.30;49.94;;
69616;Laerm;56822;52.516;4.708;2024-01-30T00:21:27;45.50;42.98;49.28;;
69616;Laerm;56822;52.516;4.708;2024-01-30T00:21:38;45.39;43.18;48.24;;
69616;Laerm;56822;52.516;4.708;2024-01-30T00:21:48;45.71;42.55;48.83;;
69616;Laerm;56822;52.516;4.708;2024-01-30T00:21:58;46.14;42.84;49.38;;
69616;Laerm;56822;52.516;4.708;2024-01-30T00:22:08;46.60;43.74;50.22;;
69616;Laerm;56822;52.516;4.708;2024-01-30T00:22:19;46.53;43.15;49.88;;
69616;Laerm;56822;52.516;4.708;2024-01-30T00:22:29;46.09;43.09;48.84;;
69616;Laerm;56822;52.516;4.708;2024-01-30T00:22:40;45.84;43.11;49.44;;
69616;Laerm;56822;52.516;4.708;2024-01-30T00:22:50;44.79;42.31;47.74;;
69616;Laerm;56822;52.516;4.708;2024-01-30T00:23:01;44.43;41.80;48.19;;
69616;Laerm;56822;52.516;4.708;2024-01-30T00:23:11;45.29;42.52;48.29;;
69616;Laerm;56822;52.516;4.708;2024-01-30T00:23:22;45.72;42.27;49.54;;
69616;Laerm;56822;52.516;4.708;2024-01-30T00:23:32;45.41;42.28;48.30;;
69616;Laerm;56822;52.516;4.708;2024-01-30T00:23:42;46.18;43.08;49.41;;
69616;Laerm;56822;52.516;4.708;2024-01-30T00:23:52;45.67;42.41;48.74;;
69616;Laerm;56822;52.516;4.708;2024-01-30T00:24:03;45.33;42.80;48.22;;
69616;Laerm;56822;52.516;4.708;2024-01-30T00:24:13;45.48;42.67;48.78;;
69616;Laerm;56822;52.516;4.708;2024-01-30T00:24:23;45.62;42.74;48.32;;
69616;Laerm;56822;52.516;4.708;2024-01-30T00:24:33;45.55;42.32;48.98;;
69616;Laerm;56822;52.516;4.708;2024-01-30T00:24:44;45.42;41.78;48.45;;
69616;Laerm;56822;52.516;4.708;2024-01-30T00:24:54;45.78;42.77;48.41;;
69616;Laerm;56822;52.516;4.708;2024-01-30T00:25:04;45.51;42.50;49.69;;
69616;Laerm;56822;52.516;4.708;2024-01-30T00:25:15;45.20;42.22;48.69;;
69616;Laerm;56822;52.516;4.708;2024-01-30T00:25:25;45.18;42.01;47.48;;
69616;Laerm;56822;52.516;4.708;2024-01-30T00:25:35;45.50;42.44;49.39;;
69616;Laerm;56822;52.516;4.708;2024-01-30T00:25:45;45.39;42.73;48.71;;
69616;Laerm;56822;52.516;4.708;2024-01-30T00:25:56;45.27;42.57;48.86;;
69616;Laerm;56822;52.516;4.708;2024-01-30T00:26:06;45.19;42.66;48.72;;
69616;Laerm;56822;52.516;4.708;2024-01-30T00:26:16;45.35;42.87;48.14;;
69616;Laerm;56822;52.516;4.708;2024-01-30T00:26:27;45.64;42.88;48.75;;
69616;Laerm;56822;52.516;4.708;2024-01-30T00:26:37;45.20;42.13;48.04;;
69616;Laerm;56822;52.516;4.708;2024-01-30T00:26:47;45.50;42.61;48.61;;
69616;Laerm;56822;52.516;4.708;2024-01-30T00:26:58;45.79;42.74;48.35;;
69616;Laerm;56822;52.516;4.708;2024-01-30T00:27:08;45.63;42.95;49.15;;
69616;Laerm;56822;52.516;4.708;2024-01-30T00:27:18;45.54;42.48;48.98;;
69616;Laerm;56822;52.516;4.708;2024-01-30T00:27:29;45.59;42.63;49.36;;
69616;Laerm;56822;52.516;4.708;2024-01-30T00:27:39;45.58;42.04;48.78;;
69616;Laerm;56822;52.516;4.708;2024-01-30T00:27:49;45.43;42.40;48.68;;
69616;Laerm;56822;52.516;4.708;2024-01-30T00:28:00;45.45;42.59;48.37;;
69616;Laerm;56822;52.516;4.708;2024-01-30T00:28:10;45.91;42.97;49.03;;
69616;Laerm;56822;52.516;4.708;2024-01-30T00:28:20;46.09;43.20;49.27;;
69616;Laerm;56822;52.516;4.708;2024-01-30T00:28:31;45.80;42.72;49.26;;
69616;Laerm;56822;52.516;4.708;2024-01-30T00:28:41;45.56;42.09;49.33;;
69616;Laerm;56822;52.516;4.708;2024-01-30T00:28:52;45.33;41.91;49.07;;
69616;Laerm;56822;52.516;4.708;2024-01-30T00:29:02;45.03;42.24;47.73;;
69616;Laerm;56822;52.516;4.708;2024-01-30T00:29:12;44.95;42.00;48.45;;
69616;Laerm;56822;52.516;4.708;2024-01-30T00:29:29;45.16;42.82;48.40;;
69616;Laerm;56822;52.516;4.708;2024-01-30T00:29:41;45.72;42.58;50.34;;
69616;Laerm;56822;52.516;4.708;2024-01-30T00:29:51;45.52;43.03;48.51;;
69616;Laerm;56822;52.516;4.708;2024-01-30T00:30:01;45.44;42.99;49.08;;
69616;Laerm;56822;52.516;4.708;2024-01-30T00:30:12;45.09;42.06;48.03;;
69616;Laerm;56822;52.516;4.708;2024-01-30T00:30:22;44.89;42.45;47.35;;
69616;Laerm;56822;52.516;4.708;2024-01-30T00:30:33;45.58;42.66;49.65;;
69616;Laerm;56822;52.516;4.708;2024-01-30T00:30:43;45.72;43.22;48.64;;
69616;Laerm;56822;52.516;4.708;2024-01-30T00:30:54;45.71;43.00;48.77;;
69616;Laerm;56822;52.516;4.708;2024-01-30T00:31:04;45.79;43.06;50.25;;
69616;Laerm;56822;52.516;4.708;2024-01-30T00:31:14;45.80;42.44;48.81;;
69616;Laerm;56822;52.516;4.708;2024-01-30T00:31:25;45.79;42.15;49.76;;
69616;Laerm;56822;52.516;4.708;2024-01-30T00:31:35;45.62;42.78;48.44;;
69616;Laerm;56822;52.516;4.708;2024-01-30T00:31:45;46.03;43.32;49.71;;
69616;Laerm;56822;52.516;4.708;2024-01-30T00:31:55;45.88;42.16;48.36;;
69616;Laerm;56822;52.516;4.708;2024-01-30T00:32:06;45.61;42.75;48.98;;
69616;Laerm;56822;52.516;4.708;2024-01-30T00:32:16;45.80;42.82;48.82;;
69616;Laerm;56822;52.516;4.708;2024-01-30T00:32:26;45.59;42.47;48.54;;
69616;Laerm;56822;52.516;4.708;2024-01-30T00:32:37;45.42;42.51;48.58;;
69616;Laerm;56822;52.516;4.708;2024-01-30T00:32:47;44.80;42.57;48.11;;
69616;Laerm;56822;52.516;4.708;2024-01-30T00:32:57;45.01;41.45;48.14;;
69616;Laerm;56822;52.516;4.708;2024-01-30T00:33:08;45.08;42.68;48.25;;
69616;Laerm;56822;52.516;4.708;2024-01-30T00:33:18;45.08;41.89;47.56;;
69616;Laerm;56822;52.516;4.708;2024-01-30T00:33:28;44.81;42.10;47.64;;
69616;Laerm;56822;52.516;4.708;2024-01-30T00:33:39;44.85;42.38;47.85;;
69616;Laerm;56822;52.516;4.708;2024-01-30T00:33:49;45.13;42.40;48.51;;
69616;Laerm;56822;52.516;4.708;2024-01-30T00:34:00;45.04;42.84;47.86;;
69616;Laerm;56822;52.516;4.708;2024-01-30T00:34:10;45.08;42.65;47.54;;
69616;Laerm;56822;52.516;4.708;2024-01-30T00:34:21;45.07;42.40;47.63;;
69616;Laerm;56822;52.516;4.708;2024-01-30T00:34:31;45.36;42.72;47.79;;
69616;Laerm;56822;52.516;4.708;2024-01-30T00:34:41;45.50;41.82;47.95;;
69616;Laerm;56822;52.516;4.708;2024-01-30T00:34:52;45.36;42.80;49.07;;
69616;Laerm;56822;52.516;4.708;2024-01-30T00:35:02;47.09;42.07;57.06;;
69616;Laerm;56822;52.516;4.708;2024-01-30T00:35:12;45.89;42.32;55.74;;
69616;Laerm;56822;52.516;4.708;2024-01-30T00:35:23;44.99;42.42;48.94;;
69616;Laerm;56822;52.516;4.708;2024-01-30T00:35:33;44.89;41.86;47.46;;
69616;Laerm;56822;52.516;4.708;2024-01-30T00:35:43;44.97;42.36;47.68;;
69616;Laerm;56822;52.516;4.708;2024-01-30T00:35:54;44.93;41.97;47.93;;
69616;Laerm;56822;52.516;4.708;2024-01-30T00:36:04;44.77;42.05;48.18;;
69616;Laerm;56822;52.516;4.708;2024-01-30T00:36:15;44.86;42.24;48.74;;
69616;Laerm;56822;52.516;4.708;2024-01-30T00:36:25;44.79;41.90;47.77;;
69616;Laerm;56822;52.516;4.708;2024-01-30T00:36:36;45.05;42.11;48.29;;
69616;Laerm;56822;52.516;4.708;2024-01-30T00:36:46;45.19;42.22;48.08;;
69616;Laerm;56822;52.516;4.708;2024-01-30T00:36:57;45.36;42.20;47.70;;
69616;Laerm;56822;52.516;4.708;2024-01-30T00:37:07;45.23;42.73;48.90;;
69616;Laerm;56822;52.516;4.708;2024-01-30T00:37:17;45.19;41.71;48.04;;
69616;Laerm;56822;52.516;4.708;2024-01-30T00:37:28;45.10;42.44;48.01;;
69616;Laerm;56822;52.516;4.708;2024-01-30T00:37:38;45.06;41.99;48.44;;
69616;Laerm;56822;52.516;4.708;2024-01-30T00:37:48;44.62;41.93;47.13;;
69616;Laerm;56822;52.516;4.708;2024-01-30T00:37:58;45.27;42.51;48.35;;
69616;Laerm;56822;52.516;4.708;2024-01-30T00:38:09;44.99;42.62;48.33;;
69616;Laerm;56822;52.516;4.708;2024-01-30T00:38:19;45.13;42.00;48.32;;
69616;Laerm;56822;52.516;4.708;2024-01-30T00:38:29;44.63;42.12;47.79;;
69616;Laerm;56822;52.516;4.708;2024-01-30T00:38:40;45.27;42.16;48.62;;
69616;Laerm;56822;52.516;4.708;2024-01-30T00:38:50;45.14;41.66;47.77;;
69616;Laerm;56822;52.516;4.708;2024-01-30T00:39:01;45.04;42.58;47.93;;
69616;Laerm;56822;52.516;4.708;2024-01-30T00:39:11;45.21;42.20;48.33;;
69616;Laerm;56822;52.516;4.708;2024-01-30T00:39:21;45.22;42.48;47.77;;
69616;Laerm;56822;52.516;4.708;2024-01-30T00:39:32;45.04;42.17;48.49;;
69616;Laerm;56822;52.516;4.708;2024-01-30T00:39:42;45.18;42.50;48.06;;
69616;Laerm;56822;52.516;4.708;2024-01-30T00:39:52;45.22;42.84;48.30;;
69616;Laerm;56822;52.516;4.708;2024-01-30T00:40:03;44.88;42.00;48.24;;
69616;Laerm;56822;52.516;4.708;2024-01-30T00:40:13;44.66;42.04;47.17;;
69616;Laerm;56822;52.516;4.708;2024-01-30T00:40:25;44.71;41.75;47.61;;
69616;Laerm;56822;52.516;4.708;2024-01-30T00:40:36;44.49;41.77;47.52;;
69616;Laerm;56822;52.516;4.708;2024-01-30T00:40:46;44.77;42.12;47.90;;
69616;Laerm;56822;52.516;4.708;2024-01-30T00:40:56;45.10;42.60;47.87;;
69616;Laerm;56822;52.516;4.708;2024-01-30T00:41:08;45.35;42.24;48.74;;
69616;Laerm;56822;52.516;4.708;2024-01-30T00:41:18;45.12;42.43;48.15;;
69616;Laerm;56822;52.516;4.708;2024-01-30T00:41:29;44.93;42.01;49.78;;
69616;Laerm;56822;52.516;4.708;2024-01-30T00:41:39;44.70;41.86;47.41;;
69616;Laerm;56822;52.516;4.708;2024-01-30T00:41:49;45.04;42.24;48.26;;
69616;Laerm;56822;52.516;4.708;2024-01-30T00:42:00;44.86;42.17;48.30;;
69616;Laerm;56822;52.516;4.708;2024-01-30T00:42:10;45.12;42.17;48.51;;
69616;Laerm;56822;52.516;4.708;2024-01-30T00:42:20;44.99;41.96;47.61;;
69616;Laerm;56822;52.516;4.708;2024-01-30T00:42:31;45.04;42.14;47.68;;
69616;Laerm;56822;52.516;4.708;2024-01-30T00:42:42;45.47;42.65;48.57;;
69616;Laerm;56822;52.516;4.708;2024-01-30T00:42:52;45.62;42.48;50.24;;
69616;Laerm;56822;52.516;4.708;2024-01-30T00:43:02;46.36;42.56;57.82;;
69616;Laerm;56822;52.516;4.708;2024-01-30T00:43:13;46.90;42.31;58.83;;
69616;Laerm;56822;52.516;4.708;2024-01-30T00:43:23;44.98;42.11;48.28;;
69616;Laerm;56822;52.516;4.708;2024-01-30T00:43:35;45.00;42.01;48.15;;
69616;Laerm;56822;52.516;4.708;2024-01-30T00:43:45;45.61;42.57;48.69;;
69616;Laerm;56822;52.516;4.708;2024-01-30T00:43:55;45.16;42.23;48.90;;
69616;Laerm;56822;52.516;4.708;2024-01-30T00:44:06;45.48;41.65;51.57;;
69616;Laerm;56822;52.516;4.708;2024-01-30T00:44:16;45.45;42.67;47.94;;
69616;Laerm;56822;52.516;4.708;2024-01-30T00:44:26;45.49;42.42;48.56;;
69616;Laerm;56822;52.516;4.708;2024-01-30T00:44:37;45.50;42.03;48.73;;
69616;Laerm;56822;52.516;4.708;2024-01-30T00:44:48;45.35;42.16;49.02;;
69616;Laerm;56822;52.516;4.708;2024-01-30T00:44:58;45.59;41.63;48.51;;
69616;Laerm;56822;52.516;4.708;2024-01-30T00:45:15;45.34;42.62;48.87;;
69616;Laerm;56822;52.516;4.708;2024-01-30T00:45:26;45.23;41.94;48.25;;
69616;Laerm;56822;52.516;4.708;2024-01-30T00:45:36;45.58;43.01;49.33;;
69616;Laerm;56822;52.516;4.708;2024-01-30T00:45:47;45.35;42.88;48.56;;
69616;Laerm;56822;52.516;4.708;2024-01-30T00:45:57;45.29;42.70;48.31;;
69616;Laerm;56822;52.516;4.708;2024-01-30T00:46:08;45.22;42.79;48.43;;
69616;Laerm;56822;52.516;4.708;2024-01-30T00:46:18;45.18;41.77;48.45;;
69616;Laerm;56822;52.516;4.708;2024-01-30T00:46:28;44.92;42.04;47.40;;
69616;Laerm;56822;52.516;4.708;2024-01-30T00:46:39;45.38;42.64;48.15;;
69616;Laerm;56822;52.516;4.708;2024-01-30T00:46:49;45.49;42.39;49.29;;
69616;Laerm;56822;52.516;4.708;2024-01-30T00:46:59;45.19;42.18;48.02;;
69616;Laerm;56822;52.516;4.708;2024-01-30T00:47:09;44.64;41.84;49.75;;
69616;Laerm;56822;52.516;4.708;2024-01-30T00:47:20;44.80;42.06;50.70;;
69616;Laerm;56822;52.516;4.708;2024-01-30T00:47:30;45.67;42.45;49.04;;
69616;Laerm;56822;52.516;4.708;2024-01-30T00:47:43;45.35;42.31;48.18;;
69616;Laerm;56822;52.516;4.708;2024-01-30T00:47:53;45.47;42.18;48.45;;
69616;Laerm;56822;52.516;4.708;2024-01-30T00:48:03;45.06;41.92;48.11;;
69616;Laerm;56822;52.516;4.708;2024-01-30T00:48:14;44.76;41.68;48.05;;
69616;Laerm;56822;52.516;4.708;2024-01-30T00:48:24;44.86;41.26;47.71;;
69616;Laerm;56822;52.516;4.708;2024-01-30T00:48:34;44.93;41.37;47.63;;
69616;Laerm;56822;52.516;4.708;2024-01-30T00:48:45;44.26;41.42;47.97;;
69616;Laerm;56822;52.516;4.708;2024-01-30T00:48:55;44.56;41.63;47.62;;
69616;Laerm;56822;52.516;4.708;2024-01-30T00:49:05;45.17;42.32;47.78;;
69616;Laerm;56822;52.516;4.708;2024-01-30T00:49:15;45.28;42.41;48.33;;
69616;Laerm;56822;52.516;4.708;2024-01-30T00:49:26;45.51;42.62;49.71;;
69616;Laerm;56822;52.516;4.708;2024-01-30T00:49:36;45.41;42.82;48.30;;
69616;Laerm;56822;52.516;4.708;2024-01-30T00:49:46;45.31;42.96;48.38;;
69616;Laerm;56822;52.516;4.708;2024-01-30T00:49:56;45.10;41.58;48.44;;
69616;Laerm;56822;52.516;4.708;2024-01-30T00:50:07;45.25;42.32;47.89;;
69616;Laerm;56822;52.516;4.708;2024-01-30T00:50:17;45.61;42.71;49.41;;
69616;Laerm;56822;52.516;4.708;2024-01-30T00:50:27;45.47;42.64;47.89;;
69616;Laerm;56822;52.516;4.708;2024-01-30T00:50:38;45.45;42.06;48.32;;
69616;Laerm;56822;52.516;4.708;2024-01-30T00:50:48;44.84;41.80;48.32;;
69616;Laerm;56822;52.516;4.708;2024-01-30T00:50:58;44.65;41.86;47.69;;
69616;Laerm;56822;52.516;4.708;2024-01-30T00:51:08;44.70;41.44;47.84;;
69616;Laerm;56822;52.516;4.708;2024-01-30T00:51:19;44.96;42.77;48.29;;
69616;Laerm;56822;52.516;4.708;2024-01-30T00:51:29;44.68;42.00;47.33;;
69616;Laerm;56822;52.516;4.708;2024-01-30T00:51:40;44.84;41.35;48.46;;
69616;Laerm;56822;52.516;4.708;2024-01-30T00:51:50;44.78;42.21;47.89;;
69616;Laerm;56822;52.516;4.708;2024-01-30T00:52:00;44.91;41.77;48.19;;
69616;Laerm;56822;52.516;4.708;2024-01-30T00:52:11;45.02;42.24;48.23;;
69616;Laerm;56822;52.516;4.708;2024-01-30T00:52:21;45.28;42.01;49.02;;
69616;Laerm;56822;52.516;4.708;2024-01-30T00:52:32;45.29;42.86;47.95;;
69616;Laerm;56822;52.516;4.708;2024-01-30T00:52:43;45.13;42.22;48.87;;
69616;Laerm;56822;52.516;4.708;2024-01-30T00:52:55;45.34;42.04;48.33;;
69616;Laerm;56822;52.516;4.708;2024-01-30T00:53:05;45.14;42.22;48.70;;
69616;Laerm;56822;52.516;4.708;2024-01-30T00:53:15;44.77;42.35;48.96;;
69616;Laerm;56822;52.516;4.708;2024-01-30T00:53:26;44.92;42.11;48.17;;
69616;Laerm;56822;52.516;4.708;2024-01-30T00:53:36;44.25;41.78;48.50;;
69616;Laerm;56822;52.516;4.708;2024-01-30T00:53:46;44.50;41.21;48.15;;
69616;Laerm;56822;52.516;4.708;2024-01-30T00:53:57;45.12;42.22;48.63;;
69616;Laerm;56822;52.516;4.708;2024-01-30T00:54:07;45.02;41.64;48.46;;
69616;Laerm;56822;52.516;4.708;2024-01-30T00:54:18;45.27;41.36;48.22;;
69616;Laerm;56822;52.516;4.708;2024-01-30T00:54:28;45.56;42.30;48.35;;
69616;Laerm;56822;52.516;4.708;2024-01-30T00:54:38;45.18;42.29;48.38;;
69616;Laerm;56822;52.516;4.708;2024-01-30T00:54:48;45.74;42.73;48.31;;
69616;Laerm;56822;52.516;4.708;2024-01-30T00:54:59;45.06;42.72;47.59;;
69616;Laerm;56822;52.516;4.708;2024-01-30T00:55:09;45.45;41.36;49.07;;
69616;Laerm;56822;52.516;4.708;2024-01-30T00:55:20;45.05;41.33;48.35;;
69616;Laerm;56822;52.516;4.708;2024-01-30T00:55:30;44.80;41.22;48.42;;
69616;Laerm;56822;52.516;4.708;2024-01-30T00:55:40;44.75;41.87;48.00;;
69616;Laerm;56822;52.516;4.708;2024-01-30T00:55:51;45.10;42.29;48.43;;
69616;Laerm;56822;52.516;4.708;2024-01-30T00:56:01;45.57;42.59;49.11;;
69616;Laerm;56822;52.516;4.708;2024-01-30T00:56:11;44.06;41.06;48.11;;
69616;Laerm;56822;52.516;4.708;2024-01-30T00:56:21;44.14;41.41;47.44;;
69616;Laerm;56822;52.516;4.708;2024-01-30T00:56:32;44.90;41.61;48.51;;
69616;Laerm;56822;52.516;4.708;2024-01-30T00:56:42;45.11;42.27;48.15;;
69616;Laerm;56822;52.516;4.708;2024-01-30T00:56:52;44.92;41.89;48.07;;
69616;Laerm;56822;52.516;4.708;2024-01-30T00:57:03;45.13;41.78;48.22;;
69616;Laerm;56822;52.516;4.708;2024-01-30T00:57:13;44.90;42.18;48.17;;
69616;Laerm;56822;52.516;4.708;2024-01-30T00:57:23;44.88;41.81;47.75;;
69616;Laerm;56822;52.516;4.708;2024-01-30T00:57:34;45.07;41.62;48.71;;
69616;Laerm;56822;52.516;4.708;2024-01-30T00:57:44;44.71;42.16;48.33;;
69616;Laerm;56822;52.516;4.708;2024-01-30T00:57:54;44.51;41.77;48.51;;
69616;Laerm;56822;52.516;4.708;2024-01-30T00:58:04;44.29;41.64;46.85;;
69616;Laerm;56822;52.516;4.708;2024-01-30T00:58:15;44.57;42.24;47.03;;
69616;Laerm;56822;52.516;4.708;2024-01-30T00:58:25;44.25;41.58;47.49;;
69616;Laerm;56822;52.516;4.708;2024-01-30T00:58:35;44.34;41.65;47.06;;